Eek, AK (99578)

5:06 PM AKDT on September 04, 2015 (GMT -0800)
Quinhagak | | Change Station
CLOSE
Current Station
Airport
Location: Quinhagak|Kwinhagak Airport,
Elevation: 43 ft
Nearby Weather Stations

Elev 43 ft 59.76 °N, 161.85 °W | Updated 10 minutes ago

Overcast
Overcast
53 °F
Feels Like 53 °F
N
10
Wind Variable Wind from WSW

Today
High -- | Low -- °F
--% Chance of Precip.
Yesterday
High -- | Low -- °F
Precip. -- in
7:50 AM 9:42 PM
Waning Gibbous, 54% visible
Pressure 29.93 in
Visibility 10.0 miles
Clouds Overcast 2600 ft
Dew Point 47 °F
Humidity 80%
Rainfall 0.05 in
Snow Depth Not available.
UV 1 out of 12
Pollen Not available.
Air Quality Not available.
Flu Activity Not available.
METAR PAQH 050056Z AUTO 24009KT 10SM OVC026 12/08 A2992 RMK AO2 SLP134 T01170083
Pressure 29.93 in
Visibility 10.0 miles
Clouds Overcast 2600 ft
Dew Point 47 °F
Humidity 80%
Rainfall 0.05 in
Snow Depth Not available.
UV 1 out of 12
Pollen Not available.
Air Quality Not available.
Flu Activity Not available.
METAR PAQH 050056Z AUTO 24009KT 10SM OVC026 12/08 A2992 RMK AO2 SLP134 T01170083

10-Day Weather Forecast

×

Almanac

Astronomy

Sep. 04, 2015 Rise Set
Actual Time
Civil Twilight
Nautical Twilight
Astronomical Twilight
Moon
Length of Visible Light
Length of Day
Tomorrow will be .
, % of the Moon is Illuminated

Today's Extremes

State Highs State Lows

Community

WunderPhotos

Upload Photos

1,852,367 photos uploaded!

WunderBlogs® & News

Nearby

Air Quality

  Air Quality AQ Index Pollutant
Not available.

Snow Depth

Station Depth Elevation

Earthquake Activity

City Distance Mag. Time & Date
Minimum magnitude displayed is 2.5.

Coastal Water Temperatures

Place Temperature

Stations

Nearby Weather Stations

Station Location Temp. Windchill Dew Point Humidity Wind Precip. Elev Updated Type